Aviation Digital Data Service (ADDS)

Output produced by TAFs form (0054 UTC 21 November 2017)
found at http://www.aviationweather.gov/adds/tafs/
 
TAF KRIV 202003Z 2020/2202 31009KT 9999 BKN250 QNH3001INS 
     BECMG 2102/2103 VRB04KT 9999 SCT250 QNH3006INS 
     BECMG 2118/2119 04004KT 9999 SCT250 QNH3007INS TX26/2022Z TN03/2114Z